sensor_id;sensor_type;location;lat;lon;timestamp;P1;durP1;ratioP1;P2;durP2;ratioP2
4049;SDS011;2039;50.894;6.888;2024-03-29T00:01:45;13.63;;;1.00;;
4049;SDS011;2039;50.894;6.888;2024-03-29T00:04:11;14.60;;;1.10;;
4049;SDS011;2039;50.894;6.888;2024-03-29T00:06:37;12.57;;;1.37;;
4049;SDS011;2039;50.894;6.888;2024-03-29T00:09:02;14.50;;;1.20;;
4049;SDS011;2039;50.894;6.888;2024-03-29T00:11:28;14.80;;;1.17;;
4049;SDS011;2039;50.894;6.888;2024-03-29T00:13:54;16.43;;;1.20;;
4049;SDS011;2039;50.894;6.888;2024-03-29T00:16:19;12.10;;;0.80;;
4049;SDS011;2039;50.894;6.888;2024-03-29T00:18:47;11.95;;;0.80;;
4049;SDS011;2039;50.894;6.888;2024-03-29T00:21:13;12.93;;;1.00;;
4049;SDS011;2039;50.894;6.888;2024-03-29T00:23:39;13.40;;;1.00;;
4049;SDS011;2039;50.894;6.888;2024-03-29T00:26:05;11.98;;;0.80;;
4049;SDS011;2039;50.894;6.888;2024-03-29T00:28:32;12.27;;;0.80;;
4049;SDS011;2039;50.894;6.888;2024-03-29T00:30:57;13.40;;;0.90;;
4049;SDS011;2039;50.894;6.888;2024-03-29T00:33:23;13.00;;;1.10;;
4049;SDS011;2039;50.894;6.888;2024-03-29T00:35:49;16.90;;;1.63;;
4049;SDS011;2039;50.894;6.888;2024-03-29T00:38:15;13.97;;;1.43;;
4049;SDS011;2039;50.894;6.888;2024-03-29T00:40:40;13.00;;;2.07;;
4049;SDS011;2039;50.894;6.888;2024-03-29T00:43:06;14.63;;;1.20;;
4049;SDS011;2039;50.894;6.888;2024-03-29T00:45:32;12.70;;;1.10;;
4049;SDS011;2039;50.894;6.888;2024-03-29T00:47:58;12.47;;;1.30;;
4049;SDS011;2039;50.894;6.888;2024-03-29T00:50:23;14.60;;;1.00;;
4049;SDS011;2039;50.894;6.888;2024-03-29T00:52:49;16.03;;;1.23;;
4049;SDS011;2039;50.894;6.888;2024-03-29T00:55:15;15.70;;;1.30;;
4049;SDS011;2039;50.894;6.888;2024-03-29T00:57:41;15.07;;;1.55;;
4049;SDS011;2039;50.894;6.888;2024-03-29T01:00:07;13.30;;;1.10;;
4049;SDS011;2039;50.894;6.888;2024-03-29T01:02:35;12.52;;;1.10;;
4049;SDS011;2039;50.894;6.888;2024-03-29T01:05:01;12.37;;;0.90;;
4049;SDS011;2039;50.894;6.888;2024-03-29T01:07:26;13.13;;;1.07;;
4049;SDS011;2039;50.894;6.888;2024-03-29T01:09:52;15.43;;;1.07;;
4049;SDS011;2039;50.894;6.888;2024-03-29T01:12:18;12.93;;;1.10;;
4049;SDS011;2039;50.894;6.888;2024-03-29T01:14:44;13.30;;;1.30;;
4049;SDS011;2039;50.894;6.888;2024-03-29T01:17:10;12.90;;;1.00;;
4049;SDS011;2039;50.894;6.888;2024-03-29T01:19:42;12.27;;;0.95;;
4049;SDS011;2039;50.894;6.888;2024-03-29T01:22:07;12.15;;;1.00;;
4049;SDS011;2039;50.894;6.888;2024-03-29T01:24:33;13.20;;;1.10;;
4049;SDS011;2039;50.894;6.888;2024-03-29T01:26:59;13.30;;;1.43;;
4049;SDS011;2039;50.894;6.888;2024-03-29T01:29:25;13.37;;;1.20;;
4049;SDS011;2039;50.894;6.888;2024-03-29T01:31:50;12.67;;;1.20;;
4049;SDS011;2039;50.894;6.888;2024-03-29T01:34:16;12.33;;;1.10;;
4049;SDS011;2039;50.894;6.888;2024-03-29T01:36:42;13.33;;;0.90;;
4049;SDS011;2039;50.894;6.888;2024-03-29T01:39:12;14.00;;;1.30;;
4049;SDS011;2039;50.894;6.888;2024-03-29T01:41:40;14.60;;;1.10;;
4049;SDS011;2039;50.894;6.888;2024-03-29T01:44:06;13.60;;;0.97;;
4049;SDS011;2039;50.894;6.888;2024-03-29T01:46:31;13.23;;;1.43;;
4049;SDS011;2039;50.894;6.888;2024-03-29T01:49:01;12.00;;;0.90;;
4049;SDS011;2039;50.894;6.888;2024-03-29T01:51:27;14.07;;;1.33;;
4049;SDS011;2039;50.894;6.888;2024-03-29T01:53:54;15.15;;;1.00;;
4049;SDS011;2039;50.894;6.888;2024-03-29T01:56:21;12.27;;;0.90;;
4049;SDS011;2039;50.894;6.888;2024-03-29T01:58:49;11.95;;;0.75;;
4049;SDS011;2039;50.894;6.888;2024-03-29T02:01:16;15.55;;;1.38;;
4049;SDS011;2039;50.894;6.888;2024-03-29T02:03:42;12.30;;;0.90;;
4049;SDS011;2039;50.894;6.888;2024-03-29T02:06:07;13.03;;;1.70;;
4049;SDS011;2039;50.894;6.888;2024-03-29T02:08:35;13.50;;;1.05;;
4049;SDS011;2039;50.894;6.888;2024-03-29T02:11:01;12.80;;;1.03;;
4049;SDS011;2039;50.894;6.888;2024-03-29T02:13:28;12.27;;;1.00;;
4049;SDS011;2039;50.894;6.888;2024-03-29T02:15:54;12.90;;;1.30;;
4049;SDS011;2039;50.894;6.888;2024-03-29T02:18:20;13.20;;;1.30;;
4049;SDS011;2039;50.894;6.888;2024-03-29T02:20:46;13.67;;;1.00;;
4049;SDS011;2039;50.894;6.888;2024-03-29T02:23:13;14.27;;;1.40;;
4049;SDS011;2039;50.894;6.888;2024-03-29T02:25:44;13.07;;;1.10;;
4049;SDS011;2039;50.894;6.888;2024-03-29T02:28:10;12.60;;;0.97;;
4049;SDS011;2039;50.894;6.888;2024-03-29T02:30:38;12.90;;;1.00;;
4049;SDS011;2039;50.894;6.888;2024-03-29T02:33:04;12.50;;;0.90;;
4049;SDS011;2039;50.894;6.888;2024-03-29T02:35:32;14.48;;;1.10;;
4049;SDS011;2039;50.894;6.888;2024-03-29T02:37:58;12.30;;;0.90;;
4049;SDS011;2039;50.894;6.888;2024-03-29T02:40:24;12.17;;;1.03;;
4049;SDS011;2039;50.894;6.888;2024-03-29T02:42:50;12.07;;;1.00;;
4049;SDS011;2039;50.894;6.888;2024-03-29T02:45:16;15.23;;;1.20;;
4049;SDS011;2039;50.894;6.888;2024-03-29T02:47:42;13.15;;;1.00;;
4049;SDS011;2039;50.894;6.888;2024-03-29T02:50:09;12.40;;;1.27;;
4049;SDS011;2039;50.894;6.888;2024-03-29T02:52:36;13.27;;;1.17;;
4049;SDS011;2039;50.894;6.888;2024-03-29T02:55:04;12.30;;;1.08;;
4049;SDS011;2039;50.894;6.888;2024-03-29T02:57:30;14.13;;;1.30;;
4049;SDS011;2039;50.894;6.888;2024-03-29T02:59:56;12.87;;;1.53;;
4049;SDS011;2039;50.894;6.888;2024-03-29T03:02:21;12.17;;;0.90;;
4049;SDS011;2039;50.894;6.888;2024-03-29T03:04:47;15.10;;;1.53;;
4049;SDS011;2039;50.894;6.888;2024-03-29T03:07:13;12.30;;;1.03;;
4049;SDS011;2039;50.894;6.888;2024-03-29T03:09:57;12.90;;;1.00;;
4049;SDS011;2039;50.894;6.888;2024-03-29T03:12:41;13.18;;;1.25;;
4049;SDS011;2039;50.894;6.888;2024-03-29T03:15:08;12.77;;;0.90;;
4049;SDS011;2039;50.894;6.888;2024-03-29T03:17:33;20.00;;;1.47;;
4049;SDS011;2039;50.894;6.888;2024-03-29T03:19:59;14.60;;;1.27;;
4049;SDS011;2039;50.894;6.888;2024-03-29T03:22:25;12.70;;;1.00;;
4049;SDS011;2039;50.894;6.888;2024-03-29T03:24:50;12.70;;;1.10;;
4049;SDS011;2039;50.894;6.888;2024-03-29T03:27:16;14.70;;;1.67;;
4049;SDS011;2039;50.894;6.888;2024-03-29T03:29:42;13.90;;;1.13;;
4049;SDS011;2039;50.894;6.888;2024-03-29T03:32:08;13.80;;;1.43;;
4049;SDS011;2039;50.894;6.888;2024-03-29T03:34:33;13.53;;;1.17;;
4049;SDS011;2039;50.894;6.888;2024-03-29T03:36:59;12.50;;;1.13;;
4049;SDS011;2039;50.894;6.888;2024-03-29T03:39:25;13.10;;;1.00;;
4049;SDS011;2039;50.894;6.888;2024-03-29T03:41:50;12.67;;;1.40;;
4049;SDS011;2039;50.894;6.888;2024-03-29T03:44:16;12.60;;;1.23;;
4049;SDS011;2039;50.894;6.888;2024-03-29T03:46:42;15.50;;;1.17;;
4049;SDS011;2039;50.894;6.888;2024-03-29T03:49:07;17.27;;;1.57;;
4049;SDS011;2039;50.894;6.888;2024-03-29T03:51:33;12.43;;;1.40;;
4049;SDS011;2039;50.894;6.888;2024-03-29T03:53:59;17.00;;;1.20;;
4049;SDS011;2039;50.894;6.888;2024-03-29T03:56:24;13.10;;;1.80;;
4049;SDS011;2039;50.894;6.888;2024-03-29T03:58:50;14.60;;;1.17;;
4049;SDS011;2039;50.894;6.888;2024-03-29T04:01:16;14.00;;;1.10;;
4049;SDS011;2039;50.894;6.888;2024-03-29T04:03:41;12.13;;;0.90;;
4049;SDS011;2039;50.894;6.888;2024-03-29T04:06:07;13.10;;;1.00;;
4049;SDS011;2039;50.894;6.888;2024-03-29T04:08:32;12.90;;;1.00;;
4049;SDS011;2039;50.894;6.888;2024-03-29T04:11:02;12.27;;;1.00;;
4049;SDS011;2039;50.894;6.888;2024-03-29T04:13:28;12.60;;;1.25;;
4049;SDS011;2039;50.894;6.888;2024-03-29T04:16:00;13.57;;;1.23;;
4049;SDS011;2039;50.894;6.888;2024-03-29T04:18:26;13.38;;;1.40;;
4049;SDS011;2039;50.894;6.888;2024-03-29T04:20:59;13.63;;;1.33;;
4049;SDS011;2039;50.894;6.888;2024-03-29T04:23:26;15.65;;;1.48;;
4049;SDS011;2039;50.894;6.888;2024-03-29T04:25:55;12.95;;;1.15;;
4049;SDS011;2039;50.894;6.888;2024-03-29T04:28:22;12.70;;;1.02;;
4049;SDS011;2039;50.894;6.888;2024-03-29T04:30:58;12.95;;;1.13;;
4049;SDS011;2039;50.894;6.888;2024-03-29T04:33:24;14.93;;;1.20;;
4049;SDS011;2039;50.894;6.888;2024-03-29T04:35:54;12.95;;;1.13;;
4049;SDS011;2039;50.894;6.888;2024-03-29T04:38:21;12.50;;;1.30;;
4049;SDS011;2039;50.894;6.888;2024-03-29T04:40:48;13.07;;;1.13;;
4049;SDS011;2039;50.894;6.888;2024-03-29T04:43:14;15.60;;;1.05;;
4049;SDS011;2039;50.894;6.888;2024-03-29T04:45:40;15.13;;;1.10;;
4049;SDS011;2039;50.894;6.888;2024-03-29T04:48:05;12.37;;;1.20;;
4049;SDS011;2039;50.894;6.888;2024-03-29T04:50:31;13.18;;;1.42;;
4049;SDS011;2039;50.894;6.888;2024-03-29T04:52:57;12.10;;;0.97;;
4049;SDS011;2039;50.894;6.888;2024-03-29T04:55:23;15.33;;;1.37;;
4049;SDS011;2039;50.894;6.888;2024-03-29T04:57:48;13.37;;;1.37;;
4049;SDS011;2039;50.894;6.888;2024-03-29T05:00:14;12.80;;;1.30;;
4049;SDS011;2039;50.894;6.888;2024-03-29T05:02:40;14.60;;;1.27;;
4049;SDS011;2039;50.894;6.888;2024-03-29T05:05:05;14.47;;;1.10;;
4049;SDS011;2039;50.894;6.888;2024-03-29T05:07:31;12.73;;;1.13;;
4049;SDS011;2039;50.894;6.888;2024-03-29T05:09:56;14.07;;;1.20;;
4049;SDS011;2039;50.894;6.888;2024-03-29T05:12:22;12.90;;;1.30;;
4049;SDS011;2039;50.894;6.888;2024-03-29T05:14:48;13.53;;;1.37;;
4049;SDS011;2039;50.894;6.888;2024-03-29T05:17:14;12.90;;;1.20;;
4049;SDS011;2039;50.894;6.888;2024-03-29T05:19:40;13.30;;;1.10;;
4049;SDS011;2039;50.894;6.888;2024-03-29T05:22:06;14.80;;;1.50;;
4049;SDS011;2039;50.894;6.888;2024-03-29T05:24:31;13.83;;;1.50;;
4049;SDS011;2039;50.894;6.888;2024-03-29T05:26:57;14.10;;;1.57;;
4049;SDS011;2039;50.894;6.888;2024-03-29T05:29:23;12.40;;;1.27;;
4049;SDS011;2039;50.894;6.888;2024-03-29T05:31:48;15.00;;;1.20;;
4049;SDS011;2039;50.894;6.888;2024-03-29T05:34:14;12.80;;;1.03;;
4049;SDS011;2039;50.894;6.888;2024-03-29T05:36:40;13.20;;;1.33;;
4049;SDS011;2039;50.894;6.888;2024-03-29T05:39:05;14.13;;;1.30;;
4049;SDS011;2039;50.894;6.888;2024-03-29T05:41:31;13.87;;;1.40;;
4049;SDS011;2039;50.894;6.888;2024-03-29T05:43:57;13.30;;;1.10;;
4049;SDS011;2039;50.894;6.888;2024-03-29T05:46:23;12.80;;;1.30;;
4049;SDS011;2039;50.894;6.888;2024-03-29T05:48:49;13.20;;;1.43;;
4049;SDS011;2039;50.894;6.888;2024-03-29T05:51:14;15.70;;;1.43;;
4049;SDS011;2039;50.894;6.888;2024-03-29T05:53:40;13.60;;;1.20;;
4049;SDS011;2039;50.894;6.888;2024-03-29T05:56:06;13.40;;;1.00;;
4049;SDS011;2039;50.894;6.888;2024-03-29T05:58:33;12.80;;;1.10;;
4049;SDS011;2039;50.894;6.888;2024-03-29T06:00:59;15.07;;;1.20;;
4049;SDS011;2039;50.894;6.888;2024-03-29T06:03:24;13.20;;;1.20;;
4049;SDS011;2039;50.894;6.888;2024-03-29T06:05:50;14.30;;;1.60;;
4049;SDS011;2039;50.894;6.888;2024-03-29T06:08:16;15.67;;;1.40;;
4049;SDS011;2039;50.894;6.888;2024-03-29T06:10:42;12.95;;;1.30;;
4049;SDS011;2039;50.894;6.888;2024-03-29T06:13:08;13.37;;;1.20;;
4049;SDS011;2039;50.894;6.888;2024-03-29T06:15:42;14.05;;;1.38;;
4049;SDS011;2039;50.894;6.888;2024-03-29T06:18:27;12.60;;;1.25;;
4049;SDS011;2039;50.894;6.888;2024-03-29T06:20:52;14.30;;;1.57;;
4049;SDS011;2039;50.894;6.888;2024-03-29T06:23:18;13.27;;;1.23;;
4049;SDS011;2039;50.894;6.888;2024-03-29T06:25:44;15.60;;;1.50;;
4049;SDS011;2039;50.894;6.888;2024-03-29T06:28:10;17.17;;;1.48;;
4049;SDS011;2039;50.894;6.888;2024-03-29T06:30:35;12.73;;;1.30;;
4049;SDS011;2039;50.894;6.888;2024-03-29T06:33:01;13.10;;;1.23;;
4049;SDS011;2039;50.894;6.888;2024-03-29T06:35:28;12.60;;;1.15;;
4049;SDS011;2039;50.894;6.888;2024-03-29T06:37:54;15.07;;;1.23;;
4049;SDS011;2039;50.894;6.888;2024-03-29T06:40:21;14.57;;;1.20;;
4049;SDS011;2039;50.894;6.888;2024-03-29T06:42:46;12.67;;;1.00;;
4049;SDS011;2039;50.894;6.888;2024-03-29T06:45:12;15.07;;;1.23;;
4049;SDS011;2039;50.894;6.888;2024-03-29T06:47:38;13.23;;;1.17;;
4049;SDS011;2039;50.894;6.888;2024-03-29T06:50:05;13.05;;;1.10;;
4049;SDS011;2039;50.894;6.888;2024-03-29T06:52:31;14.20;;;1.52;;
4049;SDS011;2039;50.894;6.888;2024-03-29T06:54:57;12.47;;;1.10;;
4049;SDS011;2039;50.894;6.888;2024-03-29T06:57:23;14.27;;;1.77;;
4049;SDS011;2039;50.894;6.888;2024-03-29T06:59:57;12.90;;;1.15;;
4049;SDS011;2039;50.894;6.888;2024-03-29T07:02:23;12.38;;;1.10;;
4049;SDS011;2039;50.894;6.888;2024-03-29T07:04:49;16.23;;;1.60;;
4049;SDS011;2039;50.894;6.888;2024-03-29T07:07:15;13.33;;;1.60;;
4049;SDS011;2039;50.894;6.888;2024-03-29T07:09:40;13.07;;;1.10;;
4049;SDS011;2039;50.894;6.888;2024-03-29T07:12:06;12.20;;;1.00;;
4049;SDS011;2039;50.894;6.888;2024-03-29T07:14:32;15.20;;;1.80;;
4049;SDS011;2039;50.894;6.888;2024-03-29T07:16:58;12.90;;;1.15;;
4049;SDS011;2039;50.894;6.888;2024-03-29T07:19:24;14.00;;;1.10;;
4049;SDS011;2039;50.894;6.888;2024-03-29T07:21:50;14.00;;;1.23;;
4049;SDS011;2039;50.894;6.888;2024-03-29T07:24:19;12.60;;;1.00;;
4049;SDS011;2039;50.894;6.888;2024-03-29T07:26:45;16.10;;;1.42;;
4049;SDS011;2039;50.894;6.888;2024-03-29T07:29:11;12.87;;;1.00;;
4049;SDS011;2039;50.894;6.888;2024-03-29T07:31:37;12.43;;;1.03;;
4049;SDS011;2039;50.894;6.888;2024-03-29T07:34:02;13.03;;;1.00;;
4049;SDS011;2039;50.894;6.888;2024-03-29T07:36:28;12.70;;;1.00;;
4049;SDS011;2039;50.894;6.888;2024-03-29T07:38:59;12.32;;;1.05;;
4049;SDS011;2039;50.894;6.888;2024-03-29T07:41:25;12.35;;;1.00;;
4049;SDS011;2039;50.894;6.888;2024-03-29T07:43:52;12.30;;;0.93;;
4049;SDS011;2039;50.894;6.888;2024-03-29T07:46:24;12.80;;;1.00;;
4049;SDS011;2039;50.894;6.888;2024-03-29T07:48:55;13.77;;;1.05;;
4049;SDS011;2039;50.894;6.888;2024-03-29T07:51:21;12.23;;;0.90;;
4049;SDS011;2039;50.894;6.888;2024-03-29T07:54:29;12.77;;;0.90;;
4049;SDS011;2039;50.894;6.888;2024-03-29T07:57:15;12.20;;;1.02;;
4049;SDS011;2039;50.894;6.888;2024-03-29T07:59:42;12.93;;;1.02;;
4049;SDS011;2039;50.894;6.888;2024-03-29T08:02:07;12.17;;;0.90;;
4049;SDS011;2039;50.894;6.888;2024-03-29T08:04:34;12.80;;;0.87;;
4049;SDS011;2039;50.894;6.888;2024-03-29T08:07:00;12.43;;;1.10;;
4049;SDS011;2039;50.894;6.888;2024-03-29T08:09:25;12.23;;;0.83;;
4049;SDS011;2039;50.894;6.888;2024-03-29T08:11:51;12.67;;;0.90;;
4049;SDS011;2039;50.894;6.888;2024-03-29T08:14:16;13.43;;;1.10;;
4049;SDS011;2039;50.894;6.888;2024-03-29T08:16:43;12.70;;;1.00;;
4049;SDS011;2039;50.894;6.888;2024-03-29T08:19:09;12.23;;;0.97;;
4049;SDS011;2039;50.894;6.888;2024-03-29T08:21:35;12.17;;;1.00;;
4049;SDS011;2039;50.894;6.888;2024-03-29T08:24:01;15.35;;;0.98;;
4049;SDS011;2039;50.894;6.888;2024-03-29T08:26:29;12.38;;;0.90;;
4049;SDS011;2039;50.894;6.888;2024-03-29T08:28:55;14.45;;;1.15;;
4049;SDS011;2039;50.894;6.888;2024-03-29T08:31:21;12.63;;;0.90;;
4049;SDS011;2039;50.894;6.888;2024-03-29T08:33:47;12.47;;;0.93;;
4049;SDS011;2039;50.894;6.888;2024-03-29T08:36:13;13.43;;;1.05;;
4049;SDS011;2039;50.894;6.888;2024-03-29T08:38:38;12.30;;;0.80;;
4049;SDS011;2039;50.894;6.888;2024-03-29T08:41:07;12.03;;;0.80;;
4049;SDS011;2039;50.894;6.888;2024-03-29T08:43:33;13.73;;;0.90;;
4049;SDS011;2039;50.894;6.888;2024-03-29T08:45:59;13.10;;;1.00;;
4049;SDS011;2039;50.894;6.888;2024-03-29T08:48:26;12.20;;;0.80;;
4049;SDS011;2039;50.894;6.888;2024-03-29T08:50:53;15.50;;;1.27;;
4049;SDS011;2039;50.894;6.888;2024-03-29T08:53:19;12.15;;;0.90;;
4049;SDS011;2039;50.894;6.888;2024-03-29T08:55:46;13.10;;;1.02;;
4049;SDS011;2039;50.894;6.888;2024-03-29T08:58:13;13.07;;;0.90;;
4049;SDS011;2039;50.894;6.888;2024-03-29T09:00:39;12.30;;;0.73;;
4049;SDS011;2039;50.894;6.888;2024-03-29T09:03:05;12.47;;;0.80;;
4049;SDS011;2039;50.894;6.888;2024-03-29T09:05:31;12.90;;;1.40;;
4049;SDS011;2039;50.894;6.888;2024-03-29T09:07:56;12.60;;;1.20;;
4049;SDS011;2039;50.894;6.888;2024-03-29T09:10:23;12.07;;;0.80;;
4049;SDS011;2039;50.894;6.888;2024-03-29T09:12:51;13.10;;;1.00;;
4049;SDS011;2039;50.894;6.888;2024-03-29T09:15:17;12.23;;;0.80;;
4049;SDS011;2039;50.894;6.888;2024-03-29T09:17:43;12.30;;;0.93;;
4049;SDS011;2039;50.894;6.888;2024-03-29T09:20:10;12.13;;;0.80;;
4049;SDS011;2039;50.894;6.888;2024-03-29T09:22:36;12.60;;;1.17;;
4049;SDS011;2039;50.894;6.888;2024-03-29T09:25:03;12.90;;;0.83;;
4049;SDS011;2039;50.894;6.888;2024-03-29T09:27:30;13.80;;;1.00;;
4049;SDS011;2039;50.894;6.888;2024-03-29T09:29:59;12.70;;;0.90;;
4049;SDS011;2039;50.894;6.888;2024-03-29T09:32:24;12.20;;;0.80;;
4049;SDS011;2039;50.894;6.888;2024-03-29T09:34:50;12.23;;;0.77;;
4049;SDS011;2039;50.894;6.888;2024-03-29T09:37:16;13.37;;;0.80;;
4049;SDS011;2039;50.894;6.888;2024-03-29T09:39:43;12.17;;;0.80;;
4049;SDS011;2039;50.894;6.888;2024-03-29T09:42:09;12.63;;;0.70;;
4049;SDS011;2039;50.894;6.888;2024-03-29T09:44:40;13.37;;;1.00;;
4049;SDS011;2039;50.894;6.888;2024-03-29T09:47:10;12.07;;;0.80;;
4049;SDS011;2039;50.894;6.888;2024-03-29T09:49:39;12.70;;;0.90;;
4049;SDS011;2039;50.894;6.888;2024-03-29T09:52:12;12.17;;;0.70;;
4049;SDS011;2039;50.894;6.888;2024-03-29T09:54:41;12.40;;;0.90;;
4049;SDS011;2039;50.894;6.888;2024-03-29T09:57:07;11.90;;;0.67;;
4049;SDS011;2039;50.894;6.888;2024-03-29T09:59:34;12.37;;;0.90;;
4049;SDS011;2039;50.894;6.888;2024-03-29T10:02:00;12.77;;;0.80;;
4049;SDS011;2039;50.894;6.888;2024-03-29T10:04:41;11.97;;;0.80;;
4049;SDS011;2039;50.894;6.888;2024-03-29T10:07:08;12.47;;;0.70;;
4049;SDS011;2039;50.894;6.888;2024-03-29T10:09:35;12.73;;;0.80;;
4049;SDS011;2039;50.894;6.888;2024-03-29T10:12:01;12.07;;;0.70;;
4049;SDS011;2039;50.894;6.888;2024-03-29T10:14:29;12.10;;;0.70;;
4049;SDS011;2039;50.894;6.888;2024-03-29T10:16:57;13.00;;;0.93;;
4049;SDS011;2039;50.894;6.888;2024-03-29T10:19:23;12.93;;;1.00;;
4049;SDS011;2039;50.894;6.888;2024-03-29T10:21:49;13.20;;;0.90;;
4049;SDS011;2039;50.894;6.888;2024-03-29T10:24:16;14.33;;;1.07;;
4049;SDS011;2039;50.894;6.888;2024-03-29T10:26:45;12.47;;;0.80;;
4049;SDS011;2039;50.894;6.888;2024-03-29T10:29:11;12.47;;;0.83;;
4049;SDS011;2039;50.894;6.888;2024-03-29T10:31:37;12.23;;;0.80;;
4049;SDS011;2039;50.894;6.888;2024-03-29T10:34:06;12.23;;;0.80;;
4049;SDS011;2039;50.894;6.888;2024-03-29T10:36:33;12.50;;;0.80;;
4049;SDS011;2039;50.894;6.888;2024-03-29T10:39:02;12.50;;;0.80;;
4049;SDS011;2039;50.894;6.888;2024-03-29T10:41:36;12.27;;;0.80;;
4049;SDS011;2039;50.894;6.888;2024-03-29T10:44:09;12.20;;;0.73;;
4049;SDS011;2039;50.894;6.888;2024-03-29T10:46:37;12.40;;;0.90;;
4049;SDS011;2039;50.894;6.888;2024-03-29T10:49:04;13.10;;;1.17;;
4049;SDS011;2039;50.894;6.888;2024-03-29T10:51:34;12.77;;;0.97;;
4049;SDS011;2039;50.894;6.888;2024-03-29T10:54:04;12.40;;;0.77;;
4049;SDS011;2039;50.894;6.888;2024-03-29T10:56:31;13.40;;;0.90;;
4049;SDS011;2039;50.894;6.888;2024-03-29T10:58:59;12.07;;;0.80;;
4049;SDS011;2039;50.894;6.888;2024-03-29T11:01:49;13.80;;;0.90;;
4049;SDS011;2039;50.894;6.888;2024-03-29T11:04:22;14.40;;;0.80;;
4049;SDS011;2039;50.894;6.888;2024-03-29T11:06:53;11.97;;;0.70;;
4049;SDS011;2039;50.894;6.888;2024-03-29T11:09:22;12.60;;;0.90;;
4049;SDS011;2039;50.894;6.888;2024-03-29T11:11:50;13.53;;;0.80;;
4049;SDS011;2039;50.894;6.888;2024-03-29T11:14:20;12.80;;;0.90;;
4049;SDS011;2039;50.894;6.888;2024-03-29T11:16:51;13.13;;;0.97;;
4049;SDS011;2039;50.894;6.888;2024-03-29T11:19:22;12.70;;;1.00;;
4049;SDS011;2039;50.894;6.888;2024-03-29T11:21:48;12.33;;;0.90;;
4049;SDS011;2039;50.894;6.888;2024-03-29T11:24:16;12.87;;;0.80;;
4049;SDS011;2039;50.894;6.888;2024-03-29T11:26:47;12.30;;;0.73;;
4049;SDS011;2039;50.894;6.888;2024-03-29T11:32:47;11.93;;;0.70;;
4049;SDS011;2039;50.894;6.888;2024-03-29T11:35:15;11.77;;;0.60;;
4049;SDS011;2039;50.894;6.888;2024-03-29T11:37:41;11.90;;;0.63;;
4049;SDS011;2039;50.894;6.888;2024-03-29T11:40:10;11.83;;;0.60;;
4049;SDS011;2039;50.894;6.888;2024-03-29T11:42:49;11.97;;;0.70;;
4049;SDS011;2039;50.894;6.888;2024-03-29T11:45:17;11.97;;;0.70;;
4049;SDS011;2039;50.894;6.888;2024-03-29T11:47:44;13.60;;;0.93;;
4049;SDS011;2039;50.894;6.888;2024-03-29T11:50:10;11.93;;;0.70;;
4049;SDS011;2039;50.894;6.888;2024-03-29T11:52:38;12.53;;;0.90;;
4049;SDS011;2039;50.894;6.888;2024-03-29T11:55:04;11.73;;;0.60;;
4049;SDS011;2039;50.894;6.888;2024-03-29T11:57:30;11.93;;;0.70;;
4049;SDS011;2039;50.894;6.888;2024-03-29T11:59:59;11.87;;;0.70;;
4049;SDS011;2039;50.894;6.888;2024-03-29T12:02:25;11.90;;;0.60;;
4049;SDS011;2039;50.894;6.888;2024-03-29T12:04:50;11.77;;;0.60;;
4049;SDS011;2039;50.894;6.888;2024-03-29T12:07:16;11.97;;;0.80;;
4049;SDS011;2039;50.894;6.888;2024-03-29T12:09:42;12.00;;;0.77;;
4049;SDS011;2039;50.894;6.888;2024-03-29T12:12:08;12.20;;;0.80;;
4049;SDS011;2039;50.894;6.888;2024-03-29T12:14:35;11.83;;;0.60;;
4049;SDS011;2039;50.894;6.888;2024-03-29T12:17:08;11.83;;;0.70;;
4049;SDS011;2039;50.894;6.888;2024-03-29T12:19:37;11.83;;;0.60;;
4049;SDS011;2039;50.894;6.888;2024-03-29T12:22:07;12.17;;;0.70;;
4049;SDS011;2039;50.894;6.888;2024-03-29T12:24:33;11.83;;;0.60;;
4049;SDS011;2039;50.894;6.888;2024-03-29T12:26:59;13.07;;;0.60;;
4049;SDS011;2039;50.894;6.888;2024-03-29T12:29:24;12.97;;;0.70;;
4049;SDS011;2039;50.894;6.888;2024-03-29T12:32:00;11.87;;;0.63;;
4049;SDS011;2039;50.894;6.888;2024-03-29T12:34:27;11.93;;;0.60;;
4049;SDS011;2039;50.894;6.888;2024-03-29T12:36:53;12.40;;;0.70;;
4049;SDS011;2039;50.894;6.888;2024-03-29T12:39:18;11.87;;;0.60;;
4049;SDS011;2039;50.894;6.888;2024-03-29T12:41:46;12.20;;;0.80;;
4049;SDS011;2039;50.894;6.888;2024-03-29T12:44:12;12.03;;;0.70;;
4049;SDS011;2039;50.894;6.888;2024-03-29T12:46:38;11.87;;;0.60;;
4049;SDS011;2039;50.894;6.888;2024-03-29T12:49:04;11.93;;;0.60;;
4049;SDS011;2039;50.894;6.888;2024-03-29T12:51:29;12.10;;;0.70;;
4049;SDS011;2039;50.894;6.888;2024-03-29T12:54:01;12.63;;;0.90;;
4049;SDS011;2039;50.894;6.888;2024-03-29T12:56:30;11.97;;;0.60;;
4049;SDS011;2039;50.894;6.888;2024-03-29T12:58:56;12.50;;;0.80;;
4049;SDS011;2039;50.894;6.888;2024-03-29T13:01:22;11.97;;;0.60;;
4049;SDS011;2039;50.894;6.888;2024-03-29T13:03:48;12.03;;;0.60;;
4049;SDS011;2039;50.894;6.888;2024-03-29T13:06:14;12.00;;;0.77;;
4049;SDS011;2039;50.894;6.888;2024-03-29T13:08:43;11.87;;;0.60;;
4049;SDS011;2039;50.894;6.888;2024-03-29T13:11:09;11.97;;;0.60;;
4049;SDS011;2039;50.894;6.888;2024-03-29T13:13:35;11.97;;;0.63;;
4049;SDS011;2039;50.894;6.888;2024-03-29T13:16:01;11.97;;;0.70;;
4049;SDS011;2039;50.894;6.888;2024-03-29T13:18:27;12.90;;;0.70;;
4049;SDS011;2039;50.894;6.888;2024-03-29T13:20:53;11.97;;;0.70;;
4049;SDS011;2039;50.894;6.888;2024-03-29T13:23:21;11.87;;;0.60;;
4049;SDS011;2039;50.894;6.888;2024-03-29T13:25:47;12.07;;;0.70;;
4049;SDS011;2039;50.894;6.888;2024-03-29T13:28:13;11.83;;;0.60;;
4049;SDS011;2039;50.894;6.888;2024-03-29T13:30:39;11.90;;;0.70;;
4049;SDS011;2039;50.894;6.888;2024-03-29T13:33:08;11.93;;;0.60;;
4049;SDS011;2039;50.894;6.888;2024-03-29T13:35:35;12.07;;;0.70;;
4049;SDS011;2039;50.894;6.888;2024-03-29T13:38:01;11.97;;;0.60;;
4049;SDS011;2039;50.894;6.888;2024-03-29T13:40:26;12.00;;;0.70;;
4049;SDS011;2039;50.894;6.888;2024-03-29T13:42:57;11.83;;;0.70;;
4049;SDS011;2039;50.894;6.888;2024-03-29T13:45:25;12.07;;;0.70;;
4049;SDS011;2039;50.894;6.888;2024-03-29T13:47:52;12.13;;;0.70;;
4049;SDS011;2039;50.894;6.888;2024-03-29T13:50:18;11.93;;;0.73;;
4049;SDS011;2039;50.894;6.888;2024-03-29T13:52:52;12.00;;;0.80;;
4049;SDS011;2039;50.894;6.888;2024-03-29T13:55:20;11.90;;;0.60;;
4049;SDS011;2039;50.894;6.888;2024-03-29T13:57:45;11.87;;;0.70;;
4049;SDS011;2039;50.894;6.888;2024-03-29T14:00:11;14.00;;;0.77;;
4049;SDS011;2039;50.894;6.888;2024-03-29T14:02:42;11.90;;;0.60;;
4049;SDS011;2039;50.894;6.888;2024-03-29T14:05:07;12.90;;;0.90;;
4049;SDS011;2039;50.894;6.888;2024-03-29T14:07:33;11.77;;;0.60;;
4049;SDS011;2039;50.894;6.888;2024-03-29T14:10:02;12.00;;;0.67;;
4049;SDS011;2039;50.894;6.888;2024-03-29T14:12:31;12.40;;;0.70;;
4049;SDS011;2039;50.894;6.888;2024-03-29T14:15:00;14.10;;;0.80;;
4049;SDS011;2039;50.894;6.888;2024-03-29T14:17:26;11.97;;;0.80;;
4049;SDS011;2039;50.894;6.888;2024-03-29T14:19:53;11.80;;;0.73;;
4049;SDS011;2039;50.894;6.888;2024-03-29T14:22:19;11.83;;;0.70;;
4049;SDS011;2039;50.894;6.888;2024-03-29T14:24:45;14.20;;;0.90;;
4049;SDS011;2039;50.894;6.888;2024-03-29T14:27:10;12.40;;;0.80;;
4049;SDS011;2039;50.894;6.888;2024-03-29T14:29:37;11.77;;;0.70;;
4049;SDS011;2039;50.894;6.888;2024-03-29T14:32:04;11.87;;;0.70;;
4049;SDS011;2039;50.894;6.888;2024-03-29T14:34:30;11.87;;;0.70;;
4049;SDS011;2039;50.894;6.888;2024-03-29T14:36:57;11.90;;;0.80;;
4049;SDS011;2039;50.894;6.888;2024-03-29T14:39:26;11.97;;;0.70;;
4049;SDS011;2039;50.894;6.888;2024-03-29T14:41:53;12.37;;;0.73;;
4049;SDS011;2039;50.894;6.888;2024-03-29T14:44:18;13.37;;;1.30;;
4049;SDS011;2039;50.894;6.888;2024-03-29T14:46:45;11.87;;;0.67;;
4049;SDS011;2039;50.894;6.888;2024-03-29T14:49:12;12.40;;;1.00;;
4049;SDS011;2039;50.894;6.888;2024-03-29T14:51:39;11.67;;;0.80;;
4049;SDS011;2039;50.894;6.888;2024-03-29T14:54:05;12.27;;;1.10;;
4049;SDS011;2039;50.894;6.888;2024-03-29T14:56:31;11.83;;;0.70;;
4049;SDS011;2039;50.894;6.888;2024-03-29T14:59:00;11.87;;;0.70;;
4049;SDS011;2039;50.894;6.888;2024-03-29T15:01:26;14.67;;;0.77;;
4049;SDS011;2039;50.894;6.888;2024-03-29T15:03:52;13.10;;;0.70;;